sensor_id;sensor_type;location;lat;lon;timestamp;P1;durP1;ratioP1;P2;durP2;ratioP2
36971;SDS011;40554;52.122;20.678;2022-11-14T00:01:37;27.50;;;14.50;;
36971;SDS011;40554;52.122;20.678;2022-11-14T00:03:53;25.48;;;14.25;;
36971;SDS011;40554;52.122;20.678;2022-11-14T00:06:10;29.12;;;15.60;;
36971;SDS011;40554;52.122;20.678;2022-11-14T00:08:26;23.67;;;14.10;;
36971;SDS011;40554;52.122;20.678;2022-11-14T00:10:48;25.90;;;14.45;;
36971;SDS011;40554;52.122;20.678;2022-11-14T00:13:02;27.48;;;14.58;;
36971;SDS011;40554;52.122;20.678;2022-11-14T00:15:19;28.35;;;13.98;;
36971;SDS011;40554;52.122;20.678;2022-11-14T00:17:35;24.87;;;14.45;;
36971;SDS011;40554;52.122;20.678;2022-11-14T00:19:52;25.05;;;14.10;;
36971;SDS011;40554;52.122;20.678;2022-11-14T00:22:09;26.73;;;15.83;;
36971;SDS011;40554;52.122;20.678;2022-11-14T00:24:25;32.40;;;15.90;;
36971;SDS011;40554;52.122;20.678;2022-11-14T00:26:41;26.37;;;15.60;;
36971;SDS011;40554;52.122;20.678;2022-11-14T00:28:57;24.92;;;14.68;;
36971;SDS011;40554;52.122;20.678;2022-11-14T00:31:14;26.52;;;14.55;;
36971;SDS011;40554;52.122;20.678;2022-11-14T00:33:30;25.12;;;15.13;;
36971;SDS011;40554;52.122;20.678;2022-11-14T00:35:55;30.43;;;16.37;;
36971;SDS011;40554;52.122;20.678;2022-11-14T00:38:11;27.07;;;15.13;;
36971;SDS011;40554;52.122;20.678;2022-11-14T00:40:29;26.00;;;14.60;;
36971;SDS011;40554;52.122;20.678;2022-11-14T00:42:45;29.30;;;15.70;;
36971;SDS011;40554;52.122;20.678;2022-11-14T00:45:02;27.25;;;14.35;;
36971;SDS011;40554;52.122;20.678;2022-11-14T00:47:19;29.60;;;16.27;;
36971;SDS011;40554;52.122;20.678;2022-11-14T00:49:36;26.80;;;15.85;;
36971;SDS011;40554;52.122;20.678;2022-11-14T00:51:52;23.38;;;15.00;;
36971;SDS011;40554;52.122;20.678;2022-11-14T00:54:08;27.80;;;14.80;;
36971;SDS011;40554;52.122;20.678;2022-11-14T00:56:25;25.95;;;15.30;;
36971;SDS011;40554;52.122;20.678;2022-11-14T00:58:41;28.35;;;16.23;;
36971;SDS011;40554;52.122;20.678;2022-11-14T01:00:57;25.08;;;14.78;;
36971;SDS011;40554;52.122;20.678;2022-11-14T01:03:14;23.00;;;14.63;;
36971;SDS011;40554;52.122;20.678;2022-11-14T01:05:30;30.10;;;15.98;;
36971;SDS011;40554;52.122;20.678;2022-11-14T01:07:46;24.77;;;13.65;;
36971;SDS011;40554;52.122;20.678;2022-11-14T01:10:03;27.17;;;14.87;;
36971;SDS011;40554;52.122;20.678;2022-11-14T01:12:21;24.23;;;15.28;;
36971;SDS011;40554;52.122;20.678;2022-11-14T01:14:38;27.85;;;15.05;;
36971;SDS011;40554;52.122;20.678;2022-11-14T01:16:55;24.87;;;14.98;;
36971;SDS011;40554;52.122;20.678;2022-11-14T01:19:11;30.00;;;14.93;;
36971;SDS011;40554;52.122;20.678;2022-11-14T01:21:27;25.45;;;13.78;;
36971;SDS011;40554;52.122;20.678;2022-11-14T01:23:44;24.02;;;14.13;;
36971;SDS011;40554;52.122;20.678;2022-11-14T01:26:05;24.82;;;14.50;;
36971;SDS011;40554;52.122;20.678;2022-11-14T01:28:24;23.60;;;14.20;;
36971;SDS011;40554;52.122;20.678;2022-11-14T01:30:41;21.55;;;13.28;;
36971;SDS011;40554;52.122;20.678;2022-11-14T01:32:57;26.12;;;14.25;;
36971;SDS011;40554;52.122;20.678;2022-11-14T01:35:14;29.07;;;14.85;;
36971;SDS011;40554;52.122;20.678;2022-11-14T01:37:30;22.05;;;13.00;;
36971;SDS011;40554;52.122;20.678;2022-11-14T01:39:47;26.90;;;14.28;;
36971;SDS011;40554;52.122;20.678;2022-11-14T01:42:03;21.33;;;12.65;;
36971;SDS011;40554;52.122;20.678;2022-11-14T01:47:02;19.73;;;11.68;;
36971;SDS011;40554;52.122;20.678;2022-11-14T01:54:25;15.98;;;9.63;;
36971;SDS011;40554;52.122;20.678;2022-11-14T01:56:43;20.88;;;10.60;;
36971;SDS011;40554;52.122;20.678;2022-11-14T01:59:07;15.93;;;10.20;;
36971;SDS011;40554;52.122;20.678;2022-11-14T02:01:23;14.33;;;8.88;;
36971;SDS011;40554;52.122;20.678;2022-11-14T02:03:40;13.68;;;8.10;;
36971;SDS011;40554;52.122;20.678;2022-11-14T02:05:59;14.53;;;9.15;;
36971;SDS011;40554;52.122;20.678;2022-11-14T02:08:17;13.20;;;8.18;;
36971;SDS011;40554;52.122;20.678;2022-11-14T02:10:34;14.93;;;9.10;;
36971;SDS011;40554;52.122;20.678;2022-11-14T02:12:50;15.45;;;9.15;;
36971;SDS011;40554;52.122;20.678;2022-11-14T02:15:08;14.68;;;8.55;;
36971;SDS011;40554;52.122;20.678;2022-11-14T02:17:25;16.32;;;8.50;;
36971;SDS011;40554;52.122;20.678;2022-11-14T02:19:46;15.80;;;8.58;;
36971;SDS011;40554;52.122;20.678;2022-11-14T02:22:08;13.08;;;7.28;;
36971;SDS011;40554;52.122;20.678;2022-11-14T02:24:24;12.07;;;7.10;;
36971;SDS011;40554;52.122;20.678;2022-11-14T02:26:41;11.38;;;5.83;;
36971;SDS011;40554;52.122;20.678;2022-11-14T02:28:58;10.15;;;5.78;;
36971;SDS011;40554;52.122;20.678;2022-11-14T02:31:14;10.80;;;6.15;;
36971;SDS011;40554;52.122;20.678;2022-11-14T02:33:31;10.25;;;5.50;;
36971;SDS011;40554;52.122;20.678;2022-11-14T02:35:47;9.73;;;5.20;;
36971;SDS011;40554;52.122;20.678;2022-11-14T02:38:04;11.83;;;5.62;;
36971;SDS011;40554;52.122;20.678;2022-11-14T02:40:20;8.03;;;4.55;;
36971;SDS011;40554;52.122;20.678;2022-11-14T02:42:36;10.35;;;4.75;;
36971;SDS011;40554;52.122;20.678;2022-11-14T02:44:53;8.60;;;5.03;;
36971;SDS011;40554;52.122;20.678;2022-11-14T02:47:09;10.48;;;5.20;;
36971;SDS011;40554;52.122;20.678;2022-11-14T02:49:26;9.55;;;5.17;;
36971;SDS011;40554;52.122;20.678;2022-11-14T02:51:42;10.85;;;5.03;;
36971;SDS011;40554;52.122;20.678;2022-11-14T02:53:59;10.70;;;5.92;;
36971;SDS011;40554;52.122;20.678;2022-11-14T02:56:15;9.25;;;5.10;;
36971;SDS011;40554;52.122;20.678;2022-11-14T02:58:31;8.35;;;5.20;;
36971;SDS011;40554;52.122;20.678;2022-11-14T03:00:48;7.37;;;4.62;;
36971;SDS011;40554;52.122;20.678;2022-11-14T03:03:04;9.53;;;5.40;;
36971;SDS011;40554;52.122;20.678;2022-11-14T03:05:20;8.00;;;4.42;;
36971;SDS011;40554;52.122;20.678;2022-11-14T03:07:37;7.05;;;4.35;;
36971;SDS011;40554;52.122;20.678;2022-11-14T03:09:53;11.15;;;4.97;;
36971;SDS011;40554;52.122;20.678;2022-11-14T03:12:10;7.25;;;4.20;;
36971;SDS011;40554;52.122;20.678;2022-11-14T03:14:26;7.90;;;4.55;;
36971;SDS011;40554;52.122;20.678;2022-11-14T03:16:47;7.55;;;4.47;;
36971;SDS011;40554;52.122;20.678;2022-11-14T03:19:03;6.45;;;3.95;;
36971;SDS011;40554;52.122;20.678;2022-11-14T03:21:20;6.45;;;3.87;;
36971;SDS011;40554;52.122;20.678;2022-11-14T03:23:37;6.17;;;4.33;;
36971;SDS011;40554;52.122;20.678;2022-11-14T03:25:54;10.50;;;4.67;;
36971;SDS011;40554;52.122;20.678;2022-11-14T03:28:17;8.15;;;4.37;;
36971;SDS011;40554;52.122;20.678;2022-11-14T03:30:33;7.55;;;4.00;;
36971;SDS011;40554;52.122;20.678;2022-11-14T03:32:50;8.25;;;4.17;;
36971;SDS011;40554;52.122;20.678;2022-11-14T03:35:06;7.42;;;4.08;;
36971;SDS011;40554;52.122;20.678;2022-11-14T03:37:24;9.73;;;4.87;;
36971;SDS011;40554;52.122;20.678;2022-11-14T03:39:40;8.93;;;4.05;;
36971;SDS011;40554;52.122;20.678;2022-11-14T03:41:57;7.58;;;4.03;;
36971;SDS011;40554;52.122;20.678;2022-11-14T03:44:13;7.72;;;4.45;;
36971;SDS011;40554;52.122;20.678;2022-11-14T03:46:29;6.50;;;3.87;;
36971;SDS011;40554;52.122;20.678;2022-11-14T03:48:46;6.53;;;4.22;;
36971;SDS011;40554;52.122;20.678;2022-11-14T03:51:02;7.40;;;3.95;;
36971;SDS011;40554;52.122;20.678;2022-11-14T03:53:18;6.03;;;3.80;;
36971;SDS011;40554;52.122;20.678;2022-11-14T03:55:35;6.67;;;4.55;;
36971;SDS011;40554;52.122;20.678;2022-11-14T03:57:52;7.58;;;3.75;;
36971;SDS011;40554;52.122;20.678;2022-11-14T04:00:09;5.97;;;3.83;;
36971;SDS011;40554;52.122;20.678;2022-11-14T04:02:26;6.62;;;3.85;;
36971;SDS011;40554;52.122;20.678;2022-11-14T04:04:43;7.17;;;3.67;;
36971;SDS011;40554;52.122;20.678;2022-11-14T04:06:59;6.42;;;3.52;;
36971;SDS011;40554;52.122;20.678;2022-11-14T04:09:15;6.05;;;3.27;;
36971;SDS011;40554;52.122;20.678;2022-11-14T04:11:32;6.12;;;3.85;;
36971;SDS011;40554;52.122;20.678;2022-11-14T04:13:48;8.33;;;3.62;;
36971;SDS011;40554;52.122;20.678;2022-11-14T04:16:04;7.33;;;3.98;;
36971;SDS011;40554;52.122;20.678;2022-11-14T04:18:23;6.92;;;3.58;;
36971;SDS011;40554;52.122;20.678;2022-11-14T04:20:40;8.30;;;4.05;;
36971;SDS011;40554;52.122;20.678;2022-11-14T04:22:56;6.92;;;3.83;;
36971;SDS011;40554;52.122;20.678;2022-11-14T04:25:13;8.03;;;4.67;;
36971;SDS011;40554;52.122;20.678;2022-11-14T04:27:29;7.30;;;4.05;;
36971;SDS011;40554;52.122;20.678;2022-11-14T04:29:45;8.05;;;4.47;;
36971;SDS011;40554;52.122;20.678;2022-11-14T04:32:02;8.98;;;4.83;;
36971;SDS011;40554;52.122;20.678;2022-11-14T04:34:18;7.53;;;4.45;;
36971;SDS011;40554;52.122;20.678;2022-11-14T04:36:35;8.45;;;5.35;;
36971;SDS011;40554;52.122;20.678;2022-11-14T04:38:51;10.28;;;5.17;;
36971;SDS011;40554;52.122;20.678;2022-11-14T04:41:07;7.33;;;4.42;;
36971;SDS011;40554;52.122;20.678;2022-11-14T04:43:25;8.55;;;4.83;;
36971;SDS011;40554;52.122;20.678;2022-11-14T04:45:41;8.03;;;4.37;;
36971;SDS011;40554;52.122;20.678;2022-11-14T04:47:58;7.10;;;4.20;;
36971;SDS011;40554;52.122;20.678;2022-11-14T04:50:14;7.22;;;4.60;;
36971;SDS011;40554;52.122;20.678;2022-11-14T04:52:30;10.28;;;4.58;;
36971;SDS011;40554;52.122;20.678;2022-11-14T04:54:47;7.33;;;3.90;;
36971;SDS011;40554;52.122;20.678;2022-11-14T04:57:03;6.37;;;3.72;;
36971;SDS011;40554;52.122;20.678;2022-11-14T04:59:19;6.22;;;4.00;;
36971;SDS011;40554;52.122;20.678;2022-11-14T05:01:36;6.20;;;3.87;;
36971;SDS011;40554;52.122;20.678;2022-11-14T05:03:52;8.18;;;4.12;;
36971;SDS011;40554;52.122;20.678;2022-11-14T05:06:08;6.65;;;4.05;;
36971;SDS011;40554;52.122;20.678;2022-11-14T05:08:25;6.83;;;4.15;;
36971;SDS011;40554;52.122;20.678;2022-11-14T05:10:42;9.60;;;4.60;;
36971;SDS011;40554;52.122;20.678;2022-11-14T05:12:59;7.67;;;4.25;;
36971;SDS011;40554;52.122;20.678;2022-11-14T05:15:16;7.35;;;4.45;;
36971;SDS011;40554;52.122;20.678;2022-11-14T05:17:33;7.80;;;4.00;;
36971;SDS011;40554;52.122;20.678;2022-11-14T05:19:49;7.35;;;4.65;;
36971;SDS011;40554;52.122;20.678;2022-11-14T05:22:05;7.55;;;3.75;;
36971;SDS011;40554;52.122;20.678;2022-11-14T05:24:21;8.73;;;3.95;;
36971;SDS011;40554;52.122;20.678;2022-11-14T05:26:38;7.85;;;4.80;;
36971;SDS011;40554;52.122;20.678;2022-11-14T05:28:54;8.70;;;4.75;;
36971;SDS011;40554;52.122;20.678;2022-11-14T05:31:11;8.40;;;4.65;;
36971;SDS011;40554;52.122;20.678;2022-11-14T05:33:31;9.78;;;4.40;;
36971;SDS011;40554;52.122;20.678;2022-11-14T05:35:49;7.65;;;4.15;;
36971;SDS011;40554;52.122;20.678;2022-11-14T05:38:05;8.40;;;4.47;;
36971;SDS011;40554;52.122;20.678;2022-11-14T05:40:22;7.55;;;3.85;;
36971;SDS011;40554;52.122;20.678;2022-11-14T05:42:38;8.20;;;4.47;;
36971;SDS011;40554;52.122;20.678;2022-11-14T05:44:54;7.05;;;4.50;;
36971;SDS011;40554;52.122;20.678;2022-11-14T05:47:11;7.97;;;4.45;;
36971;SDS011;40554;52.122;20.678;2022-11-14T05:49:27;5.42;;;3.27;;
36971;SDS011;40554;52.122;20.678;2022-11-14T05:51:43;5.55;;;3.12;;
36971;SDS011;40554;52.122;20.678;2022-11-14T05:54:00;7.28;;;3.30;;
36971;SDS011;40554;52.122;20.678;2022-11-14T05:56:16;5.25;;;3.12;;
36971;SDS011;40554;52.122;20.678;2022-11-14T05:58:33;6.35;;;3.10;;
36971;SDS011;40554;52.122;20.678;2022-11-14T06:00:50;5.55;;;2.90;;
36971;SDS011;40554;52.122;20.678;2022-11-14T06:03:06;6.95;;;3.05;;
36971;SDS011;40554;52.122;20.678;2022-11-14T06:05:23;7.25;;;3.15;;
36971;SDS011;40554;52.122;20.678;2022-11-14T06:07:39;5.90;;;2.77;;
36971;SDS011;40554;52.122;20.678;2022-11-14T06:09:55;5.65;;;2.83;;
36971;SDS011;40554;52.122;20.678;2022-11-14T06:12:12;6.40;;;3.20;;
36971;SDS011;40554;52.122;20.678;2022-11-14T06:14:28;5.50;;;2.90;;
36971;SDS011;40554;52.122;20.678;2022-11-14T06:16:44;6.85;;;3.27;;
36971;SDS011;40554;52.122;20.678;2022-11-14T06:19:00;8.90;;;3.35;;
36971;SDS011;40554;52.122;20.678;2022-11-14T06:21:18;6.17;;;3.27;;
36971;SDS011;40554;52.122;20.678;2022-11-14T06:23:36;6.03;;;3.12;;
36971;SDS011;40554;52.122;20.678;2022-11-14T06:25:59;6.28;;;3.30;;
36971;SDS011;40554;52.122;20.678;2022-11-14T06:28:18;6.58;;;3.10;;
36971;SDS011;40554;52.122;20.678;2022-11-14T06:30:34;5.85;;;3.72;;
36971;SDS011;40554;52.122;20.678;2022-11-14T06:32:56;7.80;;;4.17;;
36971;SDS011;40554;52.122;20.678;2022-11-14T06:35:14;8.68;;;4.05;;
36971;SDS011;40554;52.122;20.678;2022-11-14T06:37:31;7.47;;;4.97;;
36971;SDS011;40554;52.122;20.678;2022-11-14T06:39:47;8.18;;;4.00;;
36971;SDS011;40554;52.122;20.678;2022-11-14T06:42:03;6.67;;;3.83;;
36971;SDS011;40554;52.122;20.678;2022-11-14T06:44:20;5.35;;;3.70;;
36971;SDS011;40554;52.122;20.678;2022-11-14T06:46:36;7.97;;;4.12;;
36971;SDS011;40554;52.122;20.678;2022-11-14T06:48:52;6.37;;;3.77;;
36971;SDS011;40554;52.122;20.678;2022-11-14T06:51:09;7.80;;;4.65;;
36971;SDS011;40554;52.122;20.678;2022-11-14T06:53:28;7.62;;;4.17;;
36971;SDS011;40554;52.122;20.678;2022-11-14T06:55:54;6.90;;;3.75;;
36971;SDS011;40554;52.122;20.678;2022-11-14T06:58:13;7.80;;;4.78;;
36971;SDS011;40554;52.122;20.678;2022-11-14T07:00:29;7.20;;;4.00;;
36971;SDS011;40554;52.122;20.678;2022-11-14T07:02:45;8.30;;;4.15;;
36971;SDS011;40554;52.122;20.678;2022-11-14T07:05:03;9.45;;;3.92;;
36971;SDS011;40554;52.122;20.678;2022-11-14T07:07:20;7.03;;;4.05;;
36971;SDS011;40554;52.122;20.678;2022-11-14T07:09:37;8.38;;;4.05;;
36971;SDS011;40554;52.122;20.678;2022-11-14T07:11:53;6.75;;;3.75;;
36971;SDS011;40554;52.122;20.678;2022-11-14T07:14:09;6.58;;;3.58;;
36971;SDS011;40554;52.122;20.678;2022-11-14T07:16:26;7.15;;;4.08;;
36971;SDS011;40554;52.122;20.678;2022-11-14T07:18:45;6.10;;;3.12;;
36971;SDS011;40554;52.122;20.678;2022-11-14T07:21:03;6.87;;;3.85;;
36971;SDS011;40554;52.122;20.678;2022-11-14T07:23:20;9.53;;;3.30;;
36971;SDS011;40554;52.122;20.678;2022-11-14T07:25:36;8.73;;;4.28;;
36971;SDS011;40554;52.122;20.678;2022-11-14T07:27:53;6.40;;;3.08;;
36971;SDS011;40554;52.122;20.678;2022-11-14T07:30:12;6.78;;;3.15;;
36971;SDS011;40554;52.122;20.678;2022-11-14T07:32:29;5.53;;;2.80;;
36971;SDS011;40554;52.122;20.678;2022-11-14T07:34:46;5.97;;;3.40;;
36971;SDS011;40554;52.122;20.678;2022-11-14T07:37:02;6.75;;;3.27;;
36971;SDS011;40554;52.122;20.678;2022-11-14T07:39:18;6.45;;;3.72;;
36971;SDS011;40554;52.122;20.678;2022-11-14T07:41:35;6.80;;;3.67;;
36971;SDS011;40554;52.122;20.678;2022-11-14T07:43:51;8.30;;;3.83;;
36971;SDS011;40554;52.122;20.678;2022-11-14T07:46:11;7.20;;;3.60;;
36971;SDS011;40554;52.122;20.678;2022-11-14T07:48:30;7.03;;;3.58;;
36971;SDS011;40554;52.122;20.678;2022-11-14T07:50:48;6.45;;;3.72;;
36971;SDS011;40554;52.122;20.678;2022-11-14T07:53:04;7.75;;;4.35;;
36971;SDS011;40554;52.122;20.678;2022-11-14T07:55:21;8.68;;;4.10;;
36971;SDS011;40554;52.122;20.678;2022-11-14T07:57:38;6.62;;;3.80;;
36971;SDS011;40554;52.122;20.678;2022-11-14T07:59:54;8.40;;;4.92;;
36971;SDS011;40554;52.122;20.678;2022-11-14T08:02:11;8.35;;;4.35;;
36971;SDS011;40554;52.122;20.678;2022-11-14T08:04:28;8.38;;;4.58;;
36971;SDS011;40554;52.122;20.678;2022-11-14T08:06:45;8.63;;;5.35;;
36971;SDS011;40554;52.122;20.678;2022-11-14T08:09:01;9.23;;;5.12;;
36971;SDS011;40554;52.122;20.678;2022-11-14T08:11:18;9.45;;;4.70;;
36971;SDS011;40554;52.122;20.678;2022-11-14T08:13:36;8.30;;;4.53;;
36971;SDS011;40554;52.122;20.678;2022-11-14T08:15:54;11.08;;;4.45;;
36971;SDS011;40554;52.122;20.678;2022-11-14T08:18:10;8.68;;;4.67;;
36971;SDS011;40554;52.122;20.678;2022-11-14T08:20:27;10.32;;;4.53;;
36971;SDS011;40554;52.122;20.678;2022-11-14T08:22:43;6.97;;;3.60;;
36971;SDS011;40554;52.122;20.678;2022-11-14T08:24:59;4.92;;;2.90;;
36971;SDS011;40554;52.122;20.678;2022-11-14T08:27:16;5.55;;;2.90;;
36971;SDS011;40554;52.122;20.678;2022-11-14T08:29:32;7.97;;;3.12;;
36971;SDS011;40554;52.122;20.678;2022-11-14T08:31:49;5.10;;;3.02;;
36971;SDS011;40554;52.122;20.678;2022-11-14T08:34:05;4.22;;;2.35;;
36971;SDS011;40554;52.122;20.678;2022-11-14T08:36:21;6.45;;;2.58;;
36971;SDS011;40554;52.122;20.678;2022-11-14T08:38:37;3.58;;;1.92;;
36971;SDS011;40554;52.122;20.678;2022-11-14T08:40:56;6.22;;;2.87;;
36971;SDS011;40554;52.122;20.678;2022-11-14T08:43:13;7.05;;;2.90;;
36971;SDS011;40554;52.122;20.678;2022-11-14T08:45:29;4.72;;;2.65;;
36971;SDS011;40554;52.122;20.678;2022-11-14T08:47:49;7.12;;;2.92;;
36971;SDS011;40554;52.122;20.678;2022-11-14T08:50:07;5.60;;;2.95;;
36971;SDS011;40554;52.122;20.678;2022-11-14T08:52:24;7.00;;;3.40;;
36971;SDS011;40554;52.122;20.678;2022-11-14T08:54:40;5.95;;;3.30;;
36971;SDS011;40554;52.122;20.678;2022-11-14T08:56:56;7.03;;;3.67;;
36971;SDS011;40554;52.122;20.678;2022-11-14T08:59:13;6.95;;;3.50;;
36971;SDS011;40554;52.122;20.678;2022-11-14T09:01:29;6.22;;;3.25;;
36971;SDS011;40554;52.122;20.678;2022-11-14T09:03:49;9.03;;;3.35;;
36971;SDS011;40554;52.122;20.678;2022-11-14T09:06:05;6.05;;;3.30;;
36971;SDS011;40554;52.122;20.678;2022-11-14T09:08:22;7.42;;;2.72;;
36971;SDS011;40554;52.122;20.678;2022-11-14T09:10:38;5.28;;;2.58;;
36971;SDS011;40554;52.122;20.678;2022-11-14T09:12:58;7.25;;;3.15;;
36971;SDS011;40554;52.122;20.678;2022-11-14T09:15:15;6.75;;;3.37;;
36971;SDS011;40554;52.122;20.678;2022-11-14T09:17:32;7.08;;;2.85;;
36971;SDS011;40554;52.122;20.678;2022-11-14T09:19:49;5.83;;;2.65;;
36971;SDS011;40554;52.122;20.678;2022-11-14T09:22:06;5.33;;;2.80;;
36971;SDS011;40554;52.122;20.678;2022-11-14T09:24:22;7.45;;;3.08;;
36971;SDS011;40554;52.122;20.678;2022-11-14T09:26:38;6.47;;;3.60;;
36971;SDS011;40554;52.122;20.678;2022-11-14T09:28:54;5.05;;;2.83;;
36971;SDS011;40554;52.122;20.678;2022-11-14T09:31:11;7.03;;;3.45;;
36971;SDS011;40554;52.122;20.678;2022-11-14T09:33:28;5.53;;;3.52;;
36971;SDS011;40554;52.122;20.678;2022-11-14T09:35:45;7.60;;;3.85;;
36971;SDS011;40554;52.122;20.678;2022-11-14T09:38:06;6.47;;;3.95;;
36971;SDS011;40554;52.122;20.678;2022-11-14T09:40:22;8.93;;;4.60;;
36971;SDS011;40554;52.122;20.678;2022-11-14T09:45:18;6.92;;;4.40;;
36971;SDS011;40554;52.122;20.678;2022-11-14T09:47:40;6.53;;;3.52;;
36971;SDS011;40554;52.122;20.678;2022-11-14T09:50:06;5.50;;;3.70;;
36971;SDS011;40554;52.122;20.678;2022-11-14T09:54:56;6.30;;;3.87;;
36971;SDS011;40554;52.122;20.678;2022-11-14T09:57:20;9.18;;;4.15;;
36971;SDS011;40554;52.122;20.678;2022-11-14T09:59:36;6.92;;;4.10;;
36971;SDS011;40554;52.122;20.678;2022-11-14T10:20:49;9.63;;;5.22;;
36971;SDS011;40554;52.122;20.678;2022-11-14T10:36:27;12.58;;;6.50;;
36971;SDS011;40554;52.122;20.678;2022-11-14T10:38:51;13.15;;;7.17;;
36971;SDS011;40554;52.122;20.678;2022-11-14T10:41:20;14.63;;;7.78;;
36971;SDS011;40554;52.122;20.678;2022-11-14T10:43:45;12.18;;;7.50;;
36971;SDS011;40554;52.122;20.678;2022-11-14T10:46:14;13.22;;;7.37;;
36971;SDS011;40554;52.122;20.678;2022-11-14T10:48:43;15.78;;;7.80;;
36971;SDS011;40554;52.122;20.678;2022-11-14T10:53:47;19.92;;;10.58;;
36971;SDS011;40554;52.122;20.678;2022-11-14T10:56:07;20.43;;;10.75;;
36971;SDS011;40554;52.122;20.678;2022-11-14T10:58:28;23.45;;;12.60;;
36971;SDS011;40554;52.122;20.678;2022-11-14T11:00:45;19.32;;;11.93;;
36971;SDS011;40554;52.122;20.678;2022-11-14T11:03:01;21.97;;;12.37;;
36971;SDS011;40554;52.122;20.678;2022-11-14T11:05:18;16.87;;;11.80;;
36971;SDS011;40554;52.122;20.678;2022-11-14T11:07:42;23.90;;;13.78;;
36971;SDS011;40554;52.122;20.678;2022-11-14T11:12:56;22.73;;;11.83;;
36971;SDS011;40554;52.122;20.678;2022-11-14T11:15:20;23.55;;;13.50;;
36971;SDS011;40554;52.122;20.678;2022-11-14T11:17:54;21.67;;;12.17;;
36971;SDS011;40554;52.122;20.678;2022-11-14T11:23:35;20.08;;;12.03;;
36971;SDS011;40554;52.122;20.678;2022-11-14T11:25:24;19.65;;;12.23;;
36971;SDS011;40554;52.122;20.678;2022-11-14T11:27:42;20.35;;;12.40;;
36971;SDS011;40554;52.122;20.678;2022-11-14T11:32:37;19.80;;;12.37;;
36971;SDS011;40554;52.122;20.678;2022-11-14T11:34:54;18.05;;;12.00;;
36971;SDS011;40554;52.122;20.678;2022-11-14T11:37:23;17.32;;;11.33;;
36971;SDS011;40554;52.122;20.678;2022-11-14T11:39:47;17.07;;;11.63;;
36971;SDS011;40554;52.122;20.678;2022-11-14T11:42:14;20.88;;;12.73;;
36971;SDS011;40554;52.122;20.678;2022-11-14T11:44:35;17.85;;;11.83;;
36971;SDS011;40554;52.122;20.678;2022-11-14T11:46:56;19.15;;;12.05;;
36971;SDS011;40554;52.122;20.678;2022-11-14T11:51:46;19.75;;;12.35;;
36971;SDS011;40554;52.122;20.678;2022-11-14T11:56:44;18.40;;;12.47;;
36971;SDS011;40554;52.122;20.678;2022-11-14T11:59:16;19.95;;;13.45;;
36971;SDS011;40554;52.122;20.678;2022-11-14T12:01:53;21.50;;;14.05;;
36971;SDS011;40554;52.122;20.678;2022-11-14T12:04:10;21.87;;;13.55;;
36971;SDS011;40554;52.122;20.678;2022-11-14T12:06:26;22.37;;;14.65;;
36971;SDS011;40554;52.122;20.678;2022-11-14T12:11:41;23.57;;;13.95;;
36971;SDS011;40554;52.122;20.678;2022-11-14T12:30:22;26.85;;;16.93;;
36971;SDS011;40554;52.122;20.678;2022-11-14T12:35:12;25.32;;;17.40;;
36971;SDS011;40554;52.122;20.678;2022-11-14T12:37:36;30.08;;;18.50;;
36971;SDS011;40554;52.122;20.678;2022-11-14T12:40:04;25.50;;;16.60;;
36971;SDS011;40554;52.122;20.678;2022-11-14T12:42:22;28.02;;;16.67;;
36971;SDS011;40554;52.122;20.678;2022-11-14T12:44:39;23.02;;;15.28;;
36971;SDS011;40554;52.122;20.678;2022-11-14T12:52:06;24.12;;;15.75;;
36971;SDS011;40554;52.122;20.678;2022-11-14T12:54:45;23.83;;;15.27;;
36971;SDS011;40554;52.122;20.678;2022-11-14T12:57:03;26.45;;;15.60;;
36971;SDS011;40554;52.122;20.678;2022-11-14T12:59:31;27.67;;;15.18;;
36971;SDS011;40554;52.122;20.678;2022-11-14T13:02:18;30.08;;;15.63;;
36971;SDS011;40554;52.122;20.678;2022-11-14T13:04:57;25.82;;;14.83;;
36971;SDS011;40554;52.122;20.678;2022-11-14T13:13:01;23.67;;;13.75;;
36971;SDS011;40554;52.122;20.678;2022-11-14T13:18:31;24.10;;;14.50;;
36971;SDS011;40554;52.122;20.678;2022-11-14T13:21:18;24.50;;;14.30;;
36971;SDS011;40554;52.122;20.678;2022-11-14T13:23:53;27.73;;;14.93;;
36971;SDS011;40554;52.122;20.678;2022-11-14T13:33:41;27.80;;;14.85;;
36971;SDS011;40554;52.122;20.678;2022-11-14T13:36:04;34.98;;;16.70;;
36971;SDS011;40554;52.122;20.678;2022-11-14T13:44:08;28.38;;;14.80;;
36971;SDS011;40554;52.122;20.678;2022-11-14T13:52:03;29.18;;;16.65;;
36971;SDS011;40554;52.122;20.678;2022-11-14T13:54:20;33.25;;;17.75;;
36971;SDS011;40554;52.122;20.678;2022-11-14T13:59:40;30.88;;;16.65;;
36971;SDS011;40554;52.122;20.678;2022-11-14T14:16:16;31.80;;;18.65;;
36971;SDS011;40554;52.122;20.678;2022-11-14T14:18:52;33.90;;;18.50;;
36971;SDS011;40554;52.122;20.678;2022-11-14T14:30:09;31.82;;;17.15;;
36971;SDS011;40554;52.122;20.678;2022-11-14T14:32:28;37.42;;;19.23;;
36971;SDS011;40554;52.122;20.678;2022-11-14T14:34:44;35.95;;;18.73;;
36971;SDS011;40554;52.122;20.678;2022-11-14T14:37:00;36.88;;;19.55;;
36971;SDS011;40554;52.122;20.678;2022-11-14T14:39:18;30.23;;;17.23;;
36971;SDS011;40554;52.122;20.678;2022-11-14T14:41:40;32.90;;;18.48;;
36971;SDS011;40554;52.122;20.678;2022-11-14T14:43:57;35.80;;;18.45;;
36971;SDS011;40554;52.122;20.678;2022-11-14T14:46:14;35.68;;;18.45;;
36971;SDS011;40554;52.122;20.678;2022-11-14T14:48:46;32.67;;;19.10;;
36971;SDS011;40554;52.122;20.678;2022-11-14T14:51:03;34.73;;;18.67;;
36971;SDS011;40554;52.122;20.678;2022-11-14T14:53:22;33.08;;;17.73;;
36971;SDS011;40554;52.122;20.678;2022-11-14T14:55:55;37.65;;;18.67;;
36971;SDS011;40554;52.122;20.678;2022-11-14T14:58:15;33.67;;;18.12;;
36971;SDS011;40554;52.122;20.678;2022-11-14T15:03:20;33.98;;;18.32;;
36971;SDS011;40554;52.122;20.678;2022-11-14T15:05:38;34.05;;;18.05;;
36971;SDS011;40554;52.122;20.678;2022-11-14T15:07:55;34.15;;;18.02;;
36971;SDS011;40554;52.122;20.678;2022-11-14T15:10:24;33.48;;;17.00;;
36971;SDS011;40554;52.122;20.678;2022-11-14T15:12:39;30.72;;;17.02;;
36971;SDS011;40554;52.122;20.678;2022-11-14T15:14:57;30.00;;;17.45;;
36971;SDS011;40554;52.122;20.678;2022-11-14T15:17:15;30.75;;;18.05;;
36971;SDS011;40554;52.122;20.678;2022-11-14T15:19:39;35.35;;;17.90;;
36971;SDS011;40554;52.122;20.678;2022-11-14T15:22:02;31.73;;;16.27;;
36971;SDS011;40554;52.122;20.678;2022-11-14T15:24:32;33.98;;;16.52;;
36971;SDS011;40554;52.122;20.678;2022-11-14T15:26:48;31.95;;;17.57;;
36971;SDS011;40554;52.122;20.678;2022-11-14T15:29:16;31.35;;;16.70;;
36971;SDS011;40554;52.122;20.678;2022-11-14T15:31:43;33.80;;;17.92;;
36971;SDS011;40554;52.122;20.678;2022-11-14T15:34:24;30.17;;;17.17;;
36971;SDS011;40554;52.122;20.678;2022-11-14T15:37:17;33.18;;;16.55;;
36971;SDS011;40554;52.122;20.678;2022-11-14T15:39:31;33.13;;;17.62;;
36971;SDS011;40554;52.122;20.678;2022-11-14T15:41:47;32.48;;;15.63;;
36971;SDS011;40554;52.122;20.678;2022-11-14T15:44:04;28.07;;;15.20;;
36971;SDS011;40554;52.122;20.678;2022-11-14T15:48:58;30.12;;;17.23;;
36971;SDS011;40554;52.122;20.678;2022-11-14T15:51:45;33.63;;;17.37;;
36971;SDS011;40554;52.122;20.678;2022-11-14T15:56:41;33.55;;;17.05;;
36971;SDS011;40554;52.122;20.678;2022-11-14T15:58:57;33.28;;;16.93;;
36971;SDS011;40554;52.122;20.678;2022-11-14T16:01:15;32.67;;;17.17;;
36971;SDS011;40554;52.122;20.678;2022-11-14T16:03:35;34.03;;;16.93;;